Time;durP1;ratioP1;P1;durP2;ratioP2;P2;SDS_P1;SDS_P2;PMS_P1;PMS_P2;Temp;Humidity;BMP_temperature;BMP_pressure;BME280_temperature;BME280_humidity;BME280_pressure;Samples;Min_cycle;Max_cycle;Signal;HPM_P1;HPM_P2
2022/09/24 00:01:08;;;;;;;13.90;8.00;;;13.70;1.00;;;;;;5031954;28;20209;-60
2022/09/24 00:03:36;;;;;;;10.50;7.80;;;13.70;1.00;;;;;;5031854;28;20217;-61
2022/09/24 00:06:04;;;;;;;15.13;8.13;;;13.70;99.90;;;;;;5031627;28;20210;-58
2022/09/24 00:08:31;;;;;;;13.50;7.97;;;13.70;46.30;;;;;;5031721;28;20218;-61
2022/09/24 00:11:01;;;;;;;14.33;7.77;;;13.70;99.90;;;;;;5031709;28;20225;-61
2022/09/24 00:13:28;;;;;;;15.67;8.20;;;13.60;99.90;;;;;;5031749;28;20206;-60
2022/09/24 00:15:55;;;;;;;12.10;8.47;;;13.60;1.00;;;;;;5031153;28;20723;-60
2022/09/24 00:18:22;;;;;;;22.93;8.97;;;13.60;1.00;;;;;;5031588;28;20705;-58
2022/09/24 00:20:49;;;;;;;14.83;8.63;;;13.50;1.00;;;;;;5031766;28;20206;-60
2022/09/24 00:23:16;;;;;;;12.47;9.00;;;13.50;1.00;;;;;;5031640;28;20638;-60
2022/09/24 00:28:29;;;;;;;15.77;8.77;;;13.50;1.00;;;;;;5031508;28;20558;-60
2022/09/24 00:30:57;;;;;;;13.00;8.63;;;13.50;1.00;;;;;;5031510;28;20253;-60
2022/09/24 00:33:24;;;;;;;17.20;8.80;;;13.40;1.00;;;;;;5031681;28;20283;-56
2022/09/24 00:35:52;;;;;;;12.37;9.27;;;13.40;1.00;;;;;;5033997;28;20210;-60
2022/09/24 00:38:19;;;;;;;18.63;9.93;;;13.40;1.00;;;;;;5035422;28;20210;-60
2022/09/24 00:40:47;;;;;;;11.90;9.53;;;13.40;1.00;;;;;;5035324;28;20627;-57
2022/09/24 00:43:28;;;;;;;16.10;8.80;;;13.30;1.00;;;;;;5035430;28;20206;-61
2022/09/24 00:45:58;;;;;;;13.17;9.33;;;13.30;1.00;;;;;;5035060;28;20275;-60
2022/09/24 00:48:25;;;;;;;12.93;9.03;;;13.30;1.00;;;;;;5035267;28;20214;-56
2022/09/24 00:50:53;;;;;;;13.63;9.43;;;13.30;1.00;;;;;;5035060;28;20206;-59
2022/09/24 00:53:27;;;;;;;14.97;9.83;;;13.30;1.00;;;;;;5034996;28;20206;-59
2022/09/24 00:55:56;;;;;;;14.87;9.80;;;13.30;3.10;;;;;;5035035;28;20209;-57
2022/09/24 00:58:23;;;;;;;16.07;10.13;;;13.30;9.80;;;;;;5035253;28;20206;-59
2022/09/24 01:00:57;;;;;;;14.77;9.77;;;13.20;14.20;;;;;;5035050;28;20209;-60
2022/09/24 01:03:27;;;;;;;16.77;9.97;;;13.30;18.50;;;;;;5035161;28;20206;-60
2022/09/24 01:05:56;;;;;;;14.00;9.87;;;13.20;21.60;;;;;;5034592;28;20257;-61
2022/09/24 01:08:23;;;;;;;18.43;9.80;;;13.20;26.00;;;;;;5034889;28;20210;-58
2022/09/24 01:11:07;;;;;;;20.37;9.90;;;13.20;29.10;;;;;;5035024;28;20210;-60
2022/09/24 01:13:43;;;;;;;18.33;9.57;;;13.30;31.80;;;;;;5034749;28;20221;-61
2022/09/24 01:16:16;;;;;;;15.03;9.97;;;13.30;34.10;;;;;;5034357;28;20233;-61
2022/09/24 01:18:49;;;;;;;15.93;10.10;;;13.30;35.00;;;;;;5034913;28;20612;-54
2022/09/24 01:21:26;;;;;;;16.83;10.53;;;13.30;35.20;;;;;;5034836;28;20209;-53
2022/09/24 01:24:16;;;;;;;14.40;10.83;;;13.40;36.70;;;;;;5034370;28;20678;-56
2022/09/24 01:27:00;;;;;;;15.90;11.03;;;13.40;38.70;;;;;;5034098;28;20353;-54
2022/09/24 01:29:40;;;;;;;13.97;10.47;;;13.30;40.30;;;;;;5034554;28;20214;-56
2022/09/24 01:32:16;;;;;;;20.27;9.80;;;13.30;43.10;;;;;;5033357;28;20716;-56
2022/09/24 01:34:46;;;;;;;12.57;9.43;;;13.40;45.00;;;;;;5034281;28;20214;-57
2022/09/24 01:37:15;;;;;;;14.50;9.17;;;13.30;46.70;;;;;;5034055;28;20226;-55
2022/09/24 01:39:44;;;;;;;15.37;9.23;;;13.30;49.10;;;;;;5032127;28;20270;-58
2022/09/24 01:42:12;;;;;;;16.93;10.23;;;13.20;59.50;;;;;;5034292;28;20203;-56
2022/09/24 01:44:41;;;;;;;13.23;9.80;;;13.20;69.60;;;;;;5034152;28;20268;-60
2022/09/24 01:47:09;;;;;;;17.60;10.87;;;13.20;78.60;;;;;;5032650;28;20230;-58
2022/09/24 01:49:35;;;;;;;20.13;11.87;;;13.20;88.10;;;;;;5034158;28;20214;-58
2022/09/24 01:52:07;;;;;;;16.37;11.37;;;13.20;91.50;;;;;;5033942;28;20879;-58
2022/09/24 01:54:39;;;;;;;19.43;11.40;;;13.20;93.00;;;;;;5034068;28;20260;-57
2022/09/24 01:57:12;;;;;;;17.23;11.63;;;13.30;93.20;;;;;;5033783;28;20226;-58
2022/09/24 01:59:44;;;;;;;15.73;11.67;;;13.30;92.10;;;;;;5033996;28;20206;-59
2022/09/24 02:02:16;;;;;;;18.03;11.87;;;13.30;91.50;;;;;;5033961;28;20722;-56
2022/09/24 02:04:47;;;;;;;14.90;11.43;;;13.40;90.60;;;;;;5033741;28;20257;-56
2022/09/24 02:07:20;;;;;;;17.73;12.93;;;13.40;90.00;;;;;;5033696;28;20340;-57
2022/09/24 02:09:48;;;;;;;18.37;11.23;;;13.40;89.00;;;;;;5033679;28;20579;-55
2022/09/24 02:12:17;;;;;;;19.97;12.30;;;13.40;87.90;;;;;;5033573;28;20222;-61
2022/09/24 02:14:50;;;;;;;18.17;11.97;;;13.40;85.50;;;;;;5033603;28;20619;-56
2022/09/24 02:17:18;;;;;;;17.00;11.87;;;13.40;82.90;;;;;;5033584;28;20280;-57
2022/09/24 02:19:46;;;;;;;15.33;10.70;;;13.40;82.00;;;;;;5033533;28;20648;-56
2022/09/24 02:22:14;;;;;;;16.30;10.23;;;13.40;81.90;;;;;;5033516;28;20206;-61
2022/09/24 02:24:47;;;;;;;16.63;10.07;;;13.40;82.70;;;;;;5033575;28;20843;-60
2022/09/24 02:27:14;;;;;;;15.20;9.87;;;13.40;83.90;;;;;;5032942;28;20229;-58
2022/09/24 02:29:41;;;;;;;12.37;8.83;;;13.40;86.10;;;;;;5033459;28;20284;-55
2022/09/24 02:32:13;;;;;;;14.90;10.00;;;13.40;87.70;;;;;;5033286;28;20222;-58
2022/09/24 02:34:43;;;;;;;19.80;10.70;;;13.30;88.80;;;;;;5033435;28;20203;-61
2022/09/24 02:37:12;;;;;;;15.47;11.10;;;13.30;90.60;;;;;;5033086;28;20225;-58
2022/09/24 02:39:39;;;;;;;15.67;11.43;;;13.30;91.60;;;;;;5032941;28;20307;-58
2022/09/24 02:42:08;;;;;;;18.43;11.40;;;13.30;92.80;;;;;;5033362;28;20260;-60
2022/09/24 02:44:36;;;;;;;21.30;12.03;;;13.30;93.80;;;;;;5033132;28;20210;-60
2022/09/24 02:47:03;;;;;;;17.03;10.57;;;13.30;94.30;;;;;;5033383;28;20680;-59
2022/09/24 02:49:31;;;;;;;15.83;10.67;;;13.30;94.70;;;;;;5033427;28;20202;-62
2022/09/24 02:51:58;;;;;;;16.30;11.40;;;13.30;95.40;;;;;;5033323;28;20222;-61
2022/09/24 02:54:25;;;;;;;17.13;11.60;;;13.30;96.30;;;;;;5033337;28;20256;-60
2022/09/24 02:56:52;;;;;;;19.53;11.27;;;13.30;97.70;;;;;;5032917;28;20238;-60
2022/09/24 02:59:19;;;;;;;18.23;12.50;;;13.30;99.30;;;;;;5032266;28;20696;-57
2022/09/24 03:01:46;;;;;;;20.37;12.60;;;13.30;99.90;;;;;;5032640;28;20687;-58
2022/09/24 03:04:12;;;;;;;19.37;12.77;;;13.20;99.90;;;;;;5032629;28;20214;-58
2022/09/24 03:06:40;;;;;;;20.37;13.03;;;13.20;99.90;;;;;;5032387;28;20288;-60
2022/09/24 03:09:07;;;;;;;21.83;14.73;;;13.20;99.90;;;;;;5032712;28;20268;-58
2022/09/24 03:11:34;;;;;;;22.87;15.07;;;13.20;99.90;;;;;;5032471;28;20214;-58
2022/09/24 03:14:01;;;;;;;24.53;16.53;;;13.20;99.90;;;;;;5032542;28;20206;-61
2022/09/24 03:16:28;;;;;;;25.43;17.00;;;13.10;99.90;;;;;;5032224;28;20229;-58
2022/09/24 03:18:54;;;;;;;23.93;16.57;;;13.00;99.90;;;;;;5032476;28;20240;-63
2022/09/24 03:21:22;;;;;;;24.60;16.87;;;12.90;99.90;;;;;;5032293;28;20205;-60
2022/09/24 03:23:50;;;;;;;24.70;16.00;;;12.90;99.90;;;;;;5032506;28;20205;-60
2022/09/24 03:26:17;;;;;;;29.37;17.37;;;13.00;99.90;;;;;;5032010;28;20229;-61
2022/09/24 03:28:44;;;;;;;26.87;17.43;;;13.00;99.90;;;;;;5032361;28;20251;-61
2022/09/24 03:31:11;;;;;;;26.63;18.07;;;12.90;99.90;;;;;;5032150;28;20215;-61
2022/09/24 03:33:40;;;;;;;27.17;17.73;;;12.90;99.90;;;;;;5032113;28;20316;-58
2022/09/24 03:36:09;;;;;;;28.37;17.90;;;12.90;99.90;;;;;;5032237;28;20226;-59
2022/09/24 03:38:37;;;;;;;23.77;16.73;;;12.90;99.90;;;;;;5032472;28;20219;-60
2022/09/24 03:41:07;;;;;;;26.80;17.47;;;13.00;99.90;;;;;;5032428;28;20207;-55
2022/09/24 03:43:34;;;;;;;22.80;15.37;;;12.90;99.90;;;;;;5032079;28;20241;-60
2022/09/24 03:46:01;;;;;;;23.87;16.10;;;12.90;99.90;;;;;;5031436;28;20218;-58
2022/09/24 03:48:29;;;;;;;21.80;14.80;;;12.90;99.90;;;;;;5032064;28;20240;-60
2022/09/24 03:50:56;;;;;;;27.37;16.37;;;12.90;99.90;;;;;;5032125;28;20216;-61
2022/09/24 03:53:23;;;;;;;27.77;15.77;;;12.90;99.90;;;;;;5032033;28;20226;-57
2022/09/24 03:55:54;;;;;;;24.73;15.87;;;12.80;99.90;;;;;;5031827;28;20209;-61
2022/09/24 03:58:23;;;;;;;24.80;15.10;;;12.80;99.90;;;;;;5032028;28;20209;-58
2022/09/24 04:00:51;;;;;;;26.27;15.20;;;12.80;99.90;;;;;;5031593;28;20208;-62
2022/09/24 04:03:18;;;;;;;23.13;15.57;;;12.70;99.90;;;;;;5031998;28;20212;-61
2022/09/24 04:05:45;;;;;;;24.37;15.40;;;12.60;99.90;;;;;;5031777;28;20217;-58
2022/09/24 04:08:11;;;;;;;21.50;14.57;;;12.60;99.90;;;;;;5031672;28;20649;-61
2022/09/24 04:10:38;;;;;;;22.00;14.73;;;12.60;99.90;;;;;;5033771;28;20255;-58
2022/09/24 04:13:05;;;;;;;21.50;15.33;;;12.60;99.90;;;;;;5035752;28;20224;-58
2022/09/24 04:15:33;;;;;;;21.47;13.97;;;12.60;99.90;;;;;;5035639;28;20209;-58
2022/09/24 04:17:59;;;;;;;20.47;14.73;;;12.60;99.90;;;;;;5035797;28;20230;-60
2022/09/24 04:20:28;;;;;;;21.33;14.03;;;12.60;99.90;;;;;;5035967;28;20206;-58
2022/09/24 04:22:57;;;;;;;19.80;13.40;;;12.60;99.90;;;;;;5035807;28;20204;-58
2022/09/24 04:25:26;;;;;;;19.60;13.13;;;12.60;99.90;;;;;;5035749;28;20214;-58
2022/09/24 04:27:54;;;;;;;21.40;13.83;;;12.60;99.90;;;;;;5035497;28;20280;-61
2022/09/24 04:30:21;;;;;;;20.03;14.03;;;12.60;99.90;;;;;;5035661;28;20212;-60
2022/09/24 04:32:50;;;;;;;22.27;13.63;;;12.60;99.90;;;;;;5035643;28;20230;-60
2022/09/24 04:35:17;;;;;;;22.27;13.57;;;12.60;99.90;;;;;;5035424;28;20247;-60
2022/09/24 04:37:45;;;;;;;24.50;13.50;;;12.70;99.90;;;;;;5035411;28;20268;-60
2022/09/24 04:40:12;;;;;;;17.50;12.80;;;12.70;99.90;;;;;;5035049;28;20267;-58
2022/09/24 04:42:39;;;;;;;21.50;14.20;;;12.70;99.90;;;;;;5035060;28;20583;-60
2022/09/24 04:45:07;;;;;;;22.90;13.83;;;12.60;99.90;;;;;;5035222;28;20268;-59
2022/09/24 04:47:34;;;;;;;20.13;13.80;;;12.60;99.90;;;;;;5035277;28;20317;-59
2022/09/24 04:50:04;;;;;;;23.43;13.97;;;12.60;99.90;;;;;;5035468;28;20336;-58
2022/09/24 04:52:32;;;;;;;20.17;12.83;;;12.60;99.90;;;;;;5035084;28;20228;-61
2022/09/24 04:54:59;;;;;;;18.60;12.83;;;12.60;99.90;;;;;;5034955;28;20773;-59
2022/09/24 04:57:26;;;;;;;19.77;13.17;;;12.60;99.90;;;;;;5035103;28;20267;-60
2022/09/24 04:59:53;;;;;;;19.23;12.77;;;12.60;99.90;;;;;;5035159;28;20205;-60
2022/09/24 05:02:20;;;;;;;21.33;12.13;;;12.60;99.90;;;;;;5035232;28;20203;-58
2022/09/24 05:04:46;;;;;;;24.27;13.13;;;12.60;99.90;;;;;;5035430;28;20209;-60
2022/09/24 05:07:14;;;;;;;22.10;12.83;;;12.60;99.90;;;;;;5034924;28;20261;-60
2022/09/24 05:09:41;;;;;;;19.50;12.97;;;12.60;99.90;;;;;;5035049;28;20348;-60
2022/09/24 05:12:08;;;;;;;18.47;12.43;;;12.50;99.90;;;;;;5035012;28;20667;-57
2022/09/24 05:14:34;;;;;;;18.20;12.77;;;12.60;99.90;;;;;;5035273;28;20577;-60
2022/09/24 05:17:01;;;;;;;19.13;12.23;;;12.60;99.90;;;;;;5034367;28;20232;-58
2022/09/24 05:19:28;;;;;;;22.27;12.90;;;12.50;99.90;;;;;;5034703;28;20264;-56
2022/09/24 05:21:54;;;;;;;19.00;13.83;;;12.50;99.90;;;;;;5034307;28;20210;-57
2022/09/24 05:24:22;;;;;;;20.87;12.83;;;12.50;99.90;;;;;;5034577;28;20202;-56
2022/09/24 05:29:33;;;;;;;17.57;12.33;;;12.50;99.90;;;;;;5034704;28;20209;-55
2022/09/24 05:32:04;;;;;;;19.83;13.27;;;12.50;99.90;;;;;;5034500;28;20202;-58
2022/09/24 05:34:31;;;;;;;20.07;12.83;;;12.50;99.90;;;;;;5034463;28;20288;-57
2022/09/24 05:36:57;;;;;;;17.93;11.77;;;12.50;99.90;;;;;;5034208;28;20283;-57
2022/09/24 05:39:25;;;;;;;21.20;12.97;;;12.50;99.90;;;;;;5034338;28;20212;-55
2022/09/24 05:41:52;;;;;;;19.63;12.53;;;12.50;99.90;;;;;;5034500;28;20210;-57
2022/09/24 05:44:20;;;;;;;20.03;12.73;;;12.50;99.90;;;;;;5034124;28;20255;-57
2022/09/24 05:46:47;;;;;;;17.93;12.93;;;12.60;99.90;;;;;;5033884;28;20227;-55
2022/09/24 05:49:13;;;;;;;18.43;12.50;;;12.60;99.90;;;;;;5034088;28;20214;-57
2022/09/24 05:51:40;;;;;;;20.03;12.60;;;12.60;99.90;;;;;;5034191;28;20262;-61
2022/09/24 05:54:07;;;;;;;18.30;12.33;;;12.50;99.90;;;;;;5034145;28;20644;-58
2022/09/24 05:56:35;;;;;;;18.43;12.73;;;12.50;99.90;;;;;;5033685;28;20304;-55
2022/09/24 05:59:02;;;;;;;16.10;12.07;;;12.50;99.90;;;;;;5034212;28;20205;-58
2022/09/24 06:01:29;;;;;;;15.57;11.67;;;12.60;99.90;;;;;;5034446;28;20206;-60
2022/09/24 06:03:56;;;;;;;18.67;11.73;;;12.60;99.90;;;;;;5034063;28;20688;-58
2022/09/24 06:06:23;;;;;;;18.27;10.97;;;12.60;99.90;;;;;;5033603;28;20312;-58
2022/09/24 06:08:49;;;;;;;18.60;11.83;;;12.70;99.90;;;;;;5033936;28;20268;-55
2022/09/24 06:11:16;;;;;;;22.23;11.00;;;12.70;99.90;;;;;;5033812;28;20257;-57
2022/09/24 06:13:44;;;;;;;17.07;11.07;;;12.70;99.90;;;;;;5033659;28;20239;-58
2022/09/24 06:16:12;;;;;;;17.13;11.33;;;12.70;99.90;;;;;;5033238;28;20292;-60
2022/09/24 06:18:42;;;;;;;20.37;11.03;;;12.80;99.90;;;;;;5033739;28;20202;-59
2022/09/24 06:21:11;;;;;;;17.73;10.30;;;12.80;99.90;;;;;;5033899;28;20233;-52
2022/09/24 06:23:38;;;;;;;15.87;10.57;;;12.90;99.90;;;;;;5033314;28;20237;-54
2022/09/24 06:26:07;;;;;;;16.23;10.53;;;12.90;99.90;;;;;;5033266;28;20260;-58
2022/09/24 06:28:34;;;;;;;17.50;10.67;;;13.00;99.90;;;;;;5033255;28;20216;-58
2022/09/24 06:31:03;;;;;;;15.77;10.40;;;13.10;99.90;;;;;;5033502;28;20588;-61
2022/09/24 06:33:30;;;;;;;16.70;10.63;;;13.10;99.90;;;;;;5032690;28;20291;-53
2022/09/24 06:36:00;;;;;;;20.83;11.07;;;13.10;99.90;;;;;;5033125;28;20208;-52
2022/09/24 06:38:27;;;;;;;17.27;10.70;;;13.10;99.90;;;;;;5033435;28;20558;-52
2022/09/24 06:40:59;;;;;;;15.13;10.33;;;13.20;99.90;;;;;;5033128;28;20268;-55
2022/09/24 06:43:26;;;;;;;14.10;9.87;;;13.20;99.90;;;;;;5033243;28;20611;-54
2022/09/24 06:45:55;;;;;;;16.77;10.67;;;13.20;99.90;;;;;;5032696;28;20566;-60
2022/09/24 06:48:23;;;;;;;17.10;10.83;;;13.30;99.90;;;;;;5032911;28;20213;-54
2022/09/24 06:50:50;;;;;;;15.67;9.80;;;13.30;99.90;;;;;;5033029;28;20213;-53
2022/09/24 06:53:18;;;;;;;15.53;11.10;;;13.40;99.90;;;;;;5033351;28;20276;-58
2022/09/24 06:55:45;;;;;;;15.80;10.50;;;13.50;99.90;;;;;;5034250;28;20653;-50
2022/09/24 06:58:13;;;;;;;16.20;11.17;;;13.40;99.90;;;;;;5034026;28;20230;-58
2022/09/24 07:00:41;;;;;;;18.53;12.17;;;13.40;99.90;;;;;;5033087;28;20206;-56
2022/09/24 07:03:13;;;;;;;15.37;11.47;;;13.50;99.90;;;;;;5032745;28;20211;-58
2022/09/24 07:05:41;;;;;;;17.23;11.73;;;13.50;99.90;;;;;;5031691;28;20280;-60
2022/09/24 07:08:08;;;;;;;16.37;11.00;;;13.50;99.90;;;;;;5032307;28;20292;-61
2022/09/24 07:10:34;;;;;;;15.23;10.80;;;13.60;99.90;;;;;;5032652;28;20284;-60
2022/09/24 07:13:02;;;;;;;19.33;11.00;;;13.70;99.90;;;;;;5032635;28;20222;-59
2022/09/24 07:15:28;;;;;;;15.53;11.03;;;13.70;99.90;;;;;;5032653;28;20242;-60
2022/09/24 07:17:56;;;;;;;17.47;10.77;;;13.70;99.90;;;;;;5032200;28;20296;-58
2022/09/24 07:20:23;;;;;;;18.50;10.90;;;13.80;99.90;;;;;;5032367;28;20264;-60
2022/09/24 07:22:51;;;;;;;14.87;10.20;;;13.80;99.90;;;;;;5032272;28;20731;-60
2022/09/24 07:25:17;;;;;;;15.77;10.30;;;13.90;99.90;;;;;;5032584;28;20218;-60
2022/09/24 07:27:44;;;;;;;14.60;10.23;;;13.90;99.90;;;;;;5032108;28;20296;-61
2022/09/24 07:30:12;;;;;;;14.20;10.07;;;14.00;99.90;;;;;;5032316;28;20202;-60
2022/09/24 07:32:40;;;;;;;16.37;10.80;;;14.10;99.90;;;;;;5032253;28;20210;-61
2022/09/24 07:35:08;;;;;;;16.33;10.20;;;14.20;99.90;;;;;;5031863;28;20641;-58
2022/09/24 07:37:34;;;;;;;14.23;9.80;;;14.40;99.90;;;;;;5031820;28;20230;-60
2022/09/24 07:40:02;;;;;;;16.77;10.33;;;14.40;97.20;;;;;;5032275;28;20210;-60
2022/09/24 07:42:29;;;;;;;17.80;11.20;;;14.50;92.40;;;;;;5032236;28;20280;-61
2022/09/24 07:44:56;;;;;;;18.93;11.83;;;14.50;92.70;;;;;;5032025;28;20625;-58
2022/09/24 07:47:22;;;;;;;18.00;11.73;;;14.50;72.60;;;;;;5031699;28;20226;-61
2022/09/24 07:49:49;;;;;;;19.37;12.40;;;14.60;60.40;;;;;;5031971;28;20264;-58
2022/09/24 07:52:16;;;;;;;19.90;12.10;;;14.70;64.40;;;;;;5031895;28;20241;-59
2022/09/24 07:54:42;;;;;;;17.03;11.70;;;14.80;74.80;;;;;;5031929;28;20656;-60
2022/09/24 07:57:12;;;;;;;17.37;10.80;;;14.80;51.70;;;;;;5031746;28;20225;-60
2022/09/24 07:59:39;;;;;;;17.60;11.17;;;14.90;44.50;;;;;;5031978;28;20206;-61
2022/09/24 08:02:13;;;;;;;17.97;11.77;;;15.00;36.10;;;;;;5032037;28;20256;-60
2022/09/24 08:04:40;;;;;;;17.90;10.63;;;15.10;30.80;;;;;;5031840;28;20213;-60
2022/09/24 08:07:07;;;;;;;15.93;11.07;;;14.90;17.30;;;;;;5031586;28;20257;-60
2022/09/24 08:09:34;;;;;;;17.13;10.80;;;14.90;2.30;;;;;;5031840;28;20651;-60
2022/09/24 08:12:01;;;;;;;15.10;10.43;;;14.80;15.20;;;;;;5031619;28;20583;-61
2022/09/24 08:14:29;;;;;;;17.73;11.43;;;14.90;26.30;;;;;;5031754;28;20268;-61
2022/09/24 08:16:56;;;;;;;16.83;10.57;;;14.80;17.80;;;;;;5031368;28;20226;-61
2022/09/24 08:19:22;;;;;;;14.70;10.80;;;14.80;23.80;;;;;;5031715;28;20210;-61
2022/09/24 08:21:49;;;;;;;15.37;11.07;;;14.90;29.10;;;;;;5031943;28;20901;-62
2022/09/24 08:24:17;;;;;;;17.53;11.33;;;15.00;34.10;;;;;;5031620;28;20206;-62
2022/09/24 08:26:43;;;;;;;16.97;11.43;;;14.90;36.00;;;;;;5031423;28;20252;-62
2022/09/24 08:29:10;;;;;;;14.80;10.40;;;15.00;32.90;;;;;;5031542;28;20206;-62
2022/09/24 08:31:40;;;;;;;17.17;11.10;;;15.00;32.10;;;;;;5031580;28;20210;-61
2022/09/24 08:34:07;;;;;;;16.63;11.47;;;15.10;35.80;;;;;;5031655;28;20231;-62
2022/09/24 08:36:34;;;;;;;15.97;11.13;;;15.10;34.20;;;;;;5031540;28;20268;-62
2022/09/24 08:39:00;;;;;;;17.60;11.20;;;15.10;27.30;;;;;;5031135;28;20627;-62
2022/09/24 08:41:47;;;;;;;16.70;11.00;;;15.20;28.90;;;;;;5031458;28;20206;-62
2022/09/24 08:47:21;;;;;;;16.57;11.57;;;15.30;31.20;;;;;;5031339;28;20210;-62
2022/09/24 08:47:24;;;;;;;18.13;11.33;;;15.40;24.00;;;;;;5031296;28;20364;-62
2022/09/24 08:49:58;;;;;;;18.77;10.90;;;15.50;13.70;;;;;;5031340;28;20783;-62
2022/09/24 08:52:49;;;;;;;16.03;10.77;;;15.60;14.90;;;;;;5031521;28;20226;-62
2022/09/24 08:55:20;;;;;;;16.60;9.77;;;15.90;5.20;;;;;;5031301;28;20830;-64
2022/09/24 08:57:54;;;;;;;15.73;10.63;;;16.10;1.00;;;;;;5035092;28;20226;-62
2022/09/24 09:00:21;;;;;;;16.73;10.30;;;16.20;1.00;;;;;;5034939;28;20668;-63
2022/09/24 09:02:55;;;;;;;17.13;11.50;;;16.40;1.00;;;;;;5035072;28;20210;-63
2022/09/24 09:05:31;;;;;;;17.07;11.13;;;16.30;1.00;;;;;;5035151;28;20625;-62
2022/09/24 09:08:02;;;;;;;18.53;11.23;;;16.40;1.00;;;;;;5034716;28;20289;-62
2022/09/24 09:10:33;;;;;;;16.37;11.17;;;16.50;1.00;;;;;;5035219;28;20241;-62
2022/09/24 09:13:06;;;;;;;16.50;10.30;;;16.60;1.00;;;;;;5035437;28;20217;-62
2022/09/24 09:15:36;;;;;;;14.90;10.13;;;16.80;1.00;;;;;;5034805;28;20704;-62
2022/09/24 09:18:13;;;;;;;15.13;9.90;;;16.90;1.00;;;;;;5034529;28;20299;-62
2022/09/24 09:20:42;;;;;;;16.47;9.27;;;16.80;1.00;;;;;;5034929;28;20210;-63
2022/09/24 09:23:15;;;;;;;14.20;9.60;;;16.90;1.00;;;;;;5034918;28;20206;-63
2022/09/24 09:25:50;;;;;;;15.90;10.13;;;16.90;1.00;;;;;;5034549;28;20242;-61
2022/09/24 09:28:17;;;;;;;15.43;9.87;;;16.90;1.00;;;;;;5034385;28;20206;-62
2022/09/24 09:30:55;;;;;;;12.63;8.40;;;16.90;1.00;;;;;;5034162;28;20229;-62
2022/09/24 09:33:35;;;;;;;12.40;8.87;;;17.00;1.00;;;;;;5034502;28;20260;-62
2022/09/24 09:36:12;;;;;;;14.20;8.87;;;17.00;1.00;;;;;;5034355;28;20261;-62
2022/09/24 09:38:47;;;;;;;14.30;9.00;;;16.90;1.00;;;;;;5034505;28;20202;-62
2022/09/24 09:41:23;;;;;;;15.97;8.63;;;16.80;1.00;;;;;;5034527;28;20221;-62
2022/09/24 09:43:49;;;;;;;13.17;8.80;;;16.80;1.00;;;;;;5034336;28;20260;-62
2022/09/24 09:46:24;;;;;;;12.67;8.47;;;16.90;1.00;;;;;;5033807;28;20238;-62
2022/09/24 09:48:57;;;;;;;14.90;8.50;;;17.00;1.00;;;;;;5034058;28;20209;-63
2022/09/24 09:51:26;;;;;;;15.00;9.17;;;17.10;1.00;;;;;;5034413;28;20206;-63
2022/09/24 09:53:57;;;;;;;13.43;8.53;;;17.10;1.00;;;;;;5034213;28;20222;-62
2022/09/24 09:56:26;;;;;;;11.60;8.40;;;17.10;99.90;;;;;;5034420;28;20257;-61
2022/09/24 09:59:02;;;;;;;10.97;7.83;;;17.10;1.00;;;;;;5032711;28;20670;-62
2022/09/24 10:01:32;;;;;;;11.40;7.47;;;17.30;1.00;;;;;;5028484;28;20851;-62
2022/09/24 10:04:03;;;;;;;12.13;7.60;;;17.30;99.90;;;;;;5032933;28;20289;-62
2022/09/24 10:06:31;;;;;;;10.10;6.73;;;17.20;1.00;;;;;;5033197;28;20257;-64
2022/09/24 10:09:11;;;;;;;10.47;6.53;;;17.20;99.90;;;;;;5032194;28;20264;-61
2022/09/24 10:11:39;;;;;;;10.43;6.50;;;17.40;7.90;;;;;;5032919;28;20676;-62
2022/09/24 10:14:09;;;;;;;9.90;6.47;;;17.40;99.90;;;;;;5033590;28;20226;-62
2022/09/24 10:16:38;;;;;;;8.53;6.33;;;17.40;99.90;;;;;;5032948;28;20268;-62
2022/09/24 10:19:15;;;;;;;11.33;7.30;;;17.40;1.00;;;;;;5033443;28;20264;-61
2022/09/24 10:21:41;;;;;;;11.63;7.30;;;17.60;1.00;;;;;;5032983;28;20268;-61
2022/09/24 10:24:20;;;;;;;10.80;6.93;;;17.50;99.90;;;;;;5033146;28;20256;-62
2022/09/24 10:26:47;;;;;;;9.70;6.03;;;17.30;1.00;;;;;;5032721;28;20236;-61
2022/09/24 10:32:03;;;;;;;10.47;5.93;;;17.10;99.90;;;;;;5032692;28;20584;-61
2022/09/24 10:34:31;;;;;;;8.57;5.27;;;17.20;1.00;;;;;;5032766;28;20283;-62
2022/09/24 10:37:01;;;;;;;7.70;5.60;;;17.10;1.00;;;;;;5032691;28;20246;-63
2022/09/24 10:39:28;;;;;;;8.17;5.37;;;17.40;1.00;;;;;;5032994;28;20376;-62
2022/09/24 10:41:56;;;;;;;9.67;6.20;;;17.60;99.90;;;;;;5032057;28;20206;-63
2022/09/24 10:44:29;;;;;;;9.00;6.43;;;17.60;99.90;;;;;;5028698;28;20203;-63
2022/09/24 10:47:14;;;;;;;8.27;5.63;;;17.80;1.00;;;;;;5028841;28;20226;-63
2022/09/24 10:49:54;;;;;;;7.40;5.67;;;17.80;1.00;;;;;;5048037;28;20205;-64
2022/09/24 10:52:36;;;;;;;10.03;5.43;;;17.70;1.00;;;;;;5046427;28;20205;-61
2022/09/24 10:55:14;;;;;;;6.63;5.20;;;17.80;1.00;;;;;;5053089;28;20233;-62
2022/09/24 10:57:48;;;;;;;11.00;5.53;;;17.70;1.00;;;;;;5052702;28;20228;-63
2022/09/24 11:00:19;;;;;;;9.03;5.67;;;17.80;1.00;;;;;;5049814;28;20229;-63
2022/09/24 11:03:32;;;;;;;8.83;5.87;;;17.90;1.00;;;;;;5033931;28;20288;-62
2022/09/24 11:06:08;;;;;;;7.77;5.80;;;17.80;99.90;;;;;;5032240;28;20253;-62
2022/09/24 11:08:54;;;;;;;8.47;5.90;;;17.60;99.90;;;;;;5028631;28;20237;-63
2022/09/24 11:11:33;;;;;;;11.43;6.17;;;17.90;99.90;;;;;;5032033;28;20210;-62
2022/09/24 11:14:17;;;;;;;10.70;6.37;;;18.00;99.90;;;;;;5031645;28;20214;-62
2022/09/24 11:17:10;;;;;;;7.80;5.43;;;18.00;99.90;;;;;;5031975;28;20276;-63
2022/09/24 11:19:59;;;;;;;7.70;5.40;;;18.10;99.90;;;;;;5031557;28;20206;-62
2022/09/24 11:22:35;;;;;;;9.07;5.73;;;18.10;99.90;;;;;;5031688;28;20256;-62
2022/09/24 11:25:21;;;;;;;8.93;5.57;;;18.10;99.90;;;;;;5031875;28;20201;-62
2022/09/24 11:28:12;;;;;;;8.10;5.83;;;18.10;99.90;;;;;;5032025;28;20234;-62
2022/09/24 11:30:46;;;;;;;8.77;6.30;;;18.00;99.90;;;;;;5031539;28;20214;-62
2022/09/24 11:33:29;;;;;;;9.00;6.07;;;17.90;99.90;;;;;;5031637;28;20213;-64
2022/09/24 11:36:09;;;;;;;9.40;6.20;;;17.70;99.90;;;;;;5031325;28;20230;-66
2022/09/24 11:39:00;;;;;;;11.13;6.40;;;17.80;99.90;;;;;;5031617;28;20202;-63
2022/09/24 11:41:39;;;;;;;8.70;6.30;;;17.40;99.90;;;;;;5031117;28;20579;-67
2022/09/24 11:44:29;;;;;;;9.53;6.87;;;17.50;99.90;;;;;;5031973;28;20210;-62
2022/09/24 11:47:08;;;;;;;9.67;6.73;;;17.70;99.90;;;;;;5001919;28;20735;-63
2022/09/24 11:50:02;;;;;;;11.10;6.80;;;17.70;99.90;;;;;;5031420;28;20210;-63
2022/09/24 11:52:36;;;;;;;15.30;7.90;;;17.90;99.90;;;;;;5031365;28;20256;-61
2022/09/24 11:55:15;;;;;;;17.07;7.60;;;17.70;99.90;;;;;;5031539;28;20234;-63
2022/09/24 11:57:47;;;;;;;12.27;8.23;;;17.60;99.90;;;;;;5031082;28;20230;-64
2022/09/24 12:00:16;;;;;;;12.07;8.23;;;17.60;1.00;;;;;;5031375;28;20206;-62
2022/09/24 12:02:48;;;;;;;11.37;8.90;;;17.50;99.90;;;;;;5031340;28;20203;-62
2022/09/24 12:05:22;;;;;;;12.77;9.40;;;17.40;99.90;;;;;;5031687;28;20213;-62
2022/09/24 12:07:53;;;;;;;14.87;9.40;;;17.30;99.90;;;;;;5031053;28;20229;-65
2022/09/24 12:10:31;;;;;;;14.27;9.50;;;17.30;1.00;;;;;;5031424;28;20261;-65
2022/09/24 12:13:04;;;;;;;12.00;9.10;;;17.50;99.90;;;;;;5031151;28;20748;-67
2022/09/24 12:15:41;;;;;;;17.80;10.33;;;17.70;99.90;;;;;;5031132;28;20707;-67
2022/09/24 12:18:15;;;;;;;13.03;8.03;;;17.50;99.90;;;;;;5031187;28;20756;-65
2022/09/24 12:20:48;;;;;;;10.47;7.43;;;17.30;99.90;;;;;;5031271;28;20205;-66
2022/09/24 12:23:18;;;;;;;12.80;6.97;;;17.10;99.90;;;;;;5031319;28;20206;-66
2022/09/24 12:25:52;;;;;;;8.60;6.27;;;17.20;99.90;;;;;;5031154;28;20207;-66
2022/09/24 12:33:55;;;;;;;8.07;6.00;;;17.00;99.90;;;;;;5036039;28;20229;-64
2022/09/24 12:36:30;;;;;;;6.77;5.13;;;16.90;99.90;;;;;;5034072;28;20272;-66
2022/09/24 12:39:02;;;;;;;9.13;5.80;;;17.10;99.90;;;;;;5033955;28;20240;-67
2022/09/24 12:41:32;;;;;;;11.20;5.83;;;17.00;99.90;;;;;;5050503;28;20215;-67
2022/09/24 12:44:05;;;;;;;8.30;5.93;;;17.10;99.90;;;;;;5040843;28;20361;-67
2022/09/24 12:46:38;;;;;;;10.77;6.37;;;17.30;99.90;;;;;;5034393;28;20320;-67
2022/09/24 12:49:15;;;;;;;8.73;5.77;;;17.40;99.90;;;;;;5034913;28;20260;-65
2022/09/24 12:51:42;;;;;;;9.67;5.73;;;17.50;99.90;;;;;;5034407;28;20210;-67
2022/09/24 12:54:23;;;;;;;8.70;5.83;;;17.30;99.90;;;;;;5034594;28;20333;-65
2022/09/24 12:56:51;;;;;;;7.77;6.00;;;17.30;99.90;;;;;;5034319;28;20229;-65
2022/09/24 12:59:25;;;;;;;8.67;5.83;;;17.30;99.90;;;;;;5034848;28;20751;-65
2022/09/24 13:01:53;;;;;;;11.07;5.97;;;17.60;99.90;;;;;;5034242;28;20283;-65
2022/09/24 13:04:27;;;;;;;8.60;6.43;;;17.70;99.90;;;;;;5034512;28;20210;-64